Time;durP1;ratioP1;P1;durP2;ratioP2;P2;SDS_P1;SDS_P2;PMS_P1;PMS_P2;Temp;Humidity;BMP_temperature;BMP_pressure;BME280_temperature;BME280_humidity;BME280_pressure;Samples;Min_cycle;Max_cycle;Signal;HPM_P1;HPM_P2
2023/10/30 00:00:51;;;;;;;9.37;1.67;;;13.80;97.20;;;;;;5054578;28;20461;-59
2023/10/30 00:03:17;;;;;;;7.60;1.60;;;13.90;97.30;;;;;;5054311;28;20843;-59
2023/10/30 00:05:44;;;;;;;7.60;1.50;;;13.90;97.10;;;;;;5054212;28;20434;-59
2023/10/30 00:08:11;;;;;;;11.37;3.07;;;13.90;97.20;;;;;;5054337;28;20488;-59
2023/10/30 00:10:38;;;;;;;12.20;2.00;;;13.90;97.20;;;;;;5054200;28;20940;-59
2023/10/30 00:13:04;;;;;;;9.63;1.87;;;13.90;97.30;;;;;;5054199;28;20441;-59
2023/10/30 00:15:31;;;;;;;6.97;2.27;;;13.90;97.30;;;;;;5054173;28;20935;-59
2023/10/30 00:17:59;;;;;;;7.83;1.70;;;14.00;97.40;;;;;;5054883;28;20452;-59
2023/10/30 00:20:26;;;;;;;4.80;1.70;;;14.00;97.30;;;;;;5055064;28;20449;-59
2023/10/30 00:22:53;;;;;;;8.10;1.70;;;14.00;97.40;;;;;;5054212;28;20445;-59
2023/10/30 00:25:21;;;;;;;4.83;1.30;;;14.00;97.40;;;;;;5054220;28;20445;-59
2023/10/30 00:27:48;;;;;;;4.87;2.00;;;14.10;97.50;;;;;;5054084;28;21061;-59
2023/10/30 00:30:14;;;;;;;7.57;1.43;;;14.10;97.60;;;;;;5054202;28;20441;-59
2023/10/30 00:32:41;;;;;;;4.13;1.90;;;14.00;97.60;;;;;;5054025;28;20842;-59
2023/10/30 00:35:09;;;;;;;3.20;1.40;;;14.10;97.70;;;;;;5054050;28;20536;-59
2023/10/30 00:37:36;;;;;;;4.50;1.10;;;14.10;97.70;;;;;;5053708;28;20931;-60
2023/10/30 00:40:03;;;;;;;9.40;2.10;;;14.10;97.80;;;;;;5053967;28;20811;-60
2023/10/30 00:42:30;;;;;;;3.80;1.73;;;14.10;97.70;;;;;;5053881;28;20523;-60
2023/10/30 00:44:57;;;;;;;10.67;1.70;;;14.10;97.80;;;;;;5053783;28;20442;-60
2023/10/30 00:47:23;;;;;;;7.17;2.00;;;14.10;97.80;;;;;;5053858;28;20448;-60
2023/10/30 00:49:50;;;;;;;11.20;1.80;;;14.10;97.90;;;;;;5053896;28;20441;-60
2023/10/30 00:52:18;;;;;;;6.47;1.77;;;14.10;97.90;;;;;;5053770;28;20868;-60
2023/10/30 00:54:45;;;;;;;12.63;2.50;;;14.00;97.90;;;;;;5053714;28;20445;-60
2023/10/30 00:57:12;;;;;;;6.00;1.83;;;13.90;97.90;;;;;;5053723;28;20456;-60
2023/10/30 00:59:38;;;;;;;7.57;2.40;;;14.00;98.20;;;;;;5053666;28;20438;-60
2023/10/30 01:02:05;;;;;;;5.40;1.77;;;14.00;98.00;;;;;;5052611;28;20462;-60
2023/10/30 01:04:32;;;;;;;13.03;3.63;;;14.00;97.90;;;;;;5053351;28;20453;-60
2023/10/30 01:06:59;;;;;;;12.30;2.13;;;14.00;97.80;;;;;;5053743;28;20820;-60
2023/10/30 01:09:27;;;;;;;7.43;2.40;;;14.00;97.70;;;;;;5053566;28;20482;-60
2023/10/30 01:11:54;;;;;;;9.67;1.83;;;14.00;97.60;;;;;;5053847;28;20549;-60
2023/10/30 01:14:21;;;;;;;9.07;1.70;;;14.00;97.60;;;;;;5053583;28;20536;-60
2023/10/30 01:16:49;;;;;;;7.90;1.80;;;14.10;97.60;;;;;;5052722;28;20830;-60
2023/10/30 01:19:15;;;;;;;7.00;2.00;;;14.00;97.70;;;;;;5052915;28;20959;-60
2023/10/30 01:21:42;;;;;;;6.70;1.60;;;14.10;97.50;;;;;;5053179;28;20505;-60
2023/10/30 01:24:10;;;;;;;8.30;2.00;;;14.10;97.30;;;;;;5052960;28;20442;-60
2023/10/30 01:26:39;;;;;;;10.20;2.03;;;14.10;97.30;;;;;;5053305;28;20919;-60
2023/10/30 01:29:06;;;;;;;6.00;1.50;;;14.10;97.10;;;;;;5053187;28;20513;-60
2023/10/30 01:31:33;;;;;;;5.40;2.00;;;14.10;97.10;;;;;;5053065;28;20472;-60
2023/10/30 01:33:59;;;;;;;10.23;2.50;;;14.10;97.10;;;;;;5053244;28;20450;-60
2023/10/30 01:36:26;;;;;;;10.70;1.77;;;14.10;97.10;;;;;;5052841;28;20962;-60
2023/10/30 01:38:53;;;;;;;7.23;1.50;;;14.10;96.90;;;;;;5053191;28;20444;-60
2023/10/30 01:41:20;;;;;;;5.50;1.60;;;14.10;97.00;;;;;;5052926;28;20458;-60
2023/10/30 01:43:48;;;;;;;11.67;2.10;;;14.20;97.00;;;;;;5053191;28;20480;-60
2023/10/30 01:46:15;;;;;;;5.03;1.80;;;14.10;96.90;;;;;;5053106;28;20441;-60
2023/10/30 01:48:42;;;;;;;13.10;1.90;;;14.10;96.90;;;;;;5052917;28;20481;-60
2023/10/30 01:51:11;;;;;;;7.70;1.67;;;14.10;96.90;;;;;;5053011;28;20465;-60
2023/10/30 01:53:39;;;;;;;5.10;1.37;;;14.10;97.00;;;;;;5053219;28;20445;-60
2023/10/30 01:56:07;;;;;;;13.07;2.10;;;14.10;97.10;;;;;;5053090;28;20438;-60
2023/10/30 01:58:34;;;;;;;9.53;1.90;;;14.10;96.90;;;;;;5052445;28;20935;-60
2023/10/30 02:01:03;;;;;;;14.07;1.80;;;14.10;96.90;;;;;;5052969;28;20465;-60
2023/10/30 02:03:29;;;;;;;8.57;2.10;;;14.10;96.90;;;;;;5052791;28;20460;-60
2023/10/30 02:05:56;;;;;;;7.30;1.30;;;14.10;97.00;;;;;;5052970;28;20450;-60
2023/10/30 02:08:23;;;;;;;9.93;2.67;;;14.10;97.10;;;;;;5052536;28;20481;-60
2023/10/30 02:10:50;;;;;;;5.80;1.50;;;14.10;97.10;;;;;;5053293;28;20806;-60
2023/10/30 02:13:17;;;;;;;10.13;2.43;;;14.10;97.10;;;;;;5052541;28;20837;-60
2023/10/30 02:15:44;;;;;;;11.07;2.10;;;14.10;97.20;;;;;;5052543;28;20977;-60
2023/10/30 02:18:12;;;;;;;7.20;2.27;;;14.10;97.20;;;;;;5052826;28;20445;-60
2023/10/30 02:20:39;;;;;;;6.53;2.00;;;14.10;97.20;;;;;;5052804;28;20441;-60
2023/10/30 02:23:06;;;;;;;8.23;2.00;;;14.10;97.60;;;;;;5052639;28;20491;-60
2023/10/30 02:25:34;;;;;;;9.90;2.30;;;14.00;97.10;;;;;;5053360;28;20442;-60
2023/10/30 02:28:01;;;;;;;9.10;2.17;;;14.00;97.20;;;;;;5054825;28;20461;-60
2023/10/30 02:30:27;;;;;;;6.67;2.00;;;14.00;97.20;;;;;;5057127;28;20441;-61
2023/10/30 02:32:54;;;;;;;7.20;1.70;;;14.00;97.30;;;;;;5056526;28;20433;-60
2023/10/30 02:35:21;;;;;;;7.57;1.90;;;14.00;97.40;;;;;;5056322;28;20449;-60
2023/10/30 02:37:48;;;;;;;4.47;1.20;;;14.00;97.30;;;;;;5056424;28;20453;-60
2023/10/30 02:40:15;;;;;;;6.13;1.73;;;14.00;97.40;;;;;;5056866;28;20448;-60
2023/10/30 02:42:43;;;;;;;6.30;1.57;;;14.00;97.40;;;;;;5056130;28;20457;-60
2023/10/30 02:45:10;;;;;;;6.83;1.67;;;14.00;97.40;;;;;;5056145;28;20464;-60
2023/10/30 02:47:37;;;;;;;4.90;1.47;;;14.00;97.40;;;;;;5056225;28;20437;-60
2023/10/30 02:50:05;;;;;;;7.97;2.10;;;14.00;97.30;;;;;;5055676;28;20477;-60
2023/10/30 02:52:32;;;;;;;7.40;1.40;;;14.00;97.40;;;;;;5056092;28;20837;-60
2023/10/30 02:54:59;;;;;;;6.23;1.97;;;14.00;97.50;;;;;;5056012;28;20446;-60
2023/10/30 02:57:25;;;;;;;6.40;1.70;;;14.00;97.50;;;;;;5055702;28;20935;-60
2023/10/30 02:59:53;;;;;;;4.10;1.40;;;14.00;97.40;;;;;;5055682;28;20970;-60
2023/10/30 03:02:20;;;;;;;6.87;1.57;;;14.00;97.30;;;;;;5055792;28;20461;-60
2023/10/30 03:04:47;;;;;;;7.23;2.03;;;14.00;97.20;;;;;;5055475;28;20464;-60
2023/10/30 03:07:15;;;;;;;7.27;1.53;;;14.00;97.20;;;;;;5055821;28;20441;-60
2023/10/30 03:09:42;;;;;;;5.83;1.67;;;14.10;97.20;;;;;;5055495;28;20530;-60
2023/10/30 03:12:08;;;;;;;7.43;1.70;;;14.10;97.20;;;;;;5055622;28;20472;-60
2023/10/30 03:14:35;;;;;;;9.67;1.70;;;14.00;97.10;;;;;;5055657;28;20446;-60
2023/10/30 03:17:03;;;;;;;4.77;1.60;;;14.00;97.10;;;;;;5055600;28;20451;-60
2023/10/30 03:19:30;;;;;;;4.57;1.47;;;14.10;97.20;;;;;;5056272;28;20488;-60
2023/10/30 03:21:57;;;;;;;9.43;2.27;;;14.00;97.10;;;;;;5054943;28;20987;-60
2023/10/30 03:24:23;;;;;;;7.07;1.60;;;14.10;97.00;;;;;;5055564;28;20464;-60
2023/10/30 03:26:51;;;;;;;6.97;1.77;;;14.10;97.10;;;;;;5055353;28;20442;-61
2023/10/30 03:29:18;;;;;;;8.50;2.30;;;14.00;97.00;;;;;;5055298;28;20472;-60
2023/10/30 03:31:44;;;;;;;7.23;1.40;;;14.00;97.00;;;;;;5055317;28;20461;-60
2023/10/30 03:34:15;;;;;;;18.97;2.10;;;14.00;97.10;;;;;;5055325;28;20445;-60
2023/10/30 03:36:42;;;;;;;4.93;1.33;;;13.90;97.00;;;;;;5055242;28;20430;-60
2023/10/30 03:39:09;;;;;;;6.00;1.73;;;13.90;97.10;;;;;;5054228;28;20442;-60
2023/10/30 03:41:37;;;;;;;5.97;1.30;;;13.90;97.10;;;;;;5054705;28;20836;-60
2023/10/30 03:44:04;;;;;;;5.93;2.33;;;14.00;97.20;;;;;;5054891;28;20445;-60
2023/10/30 03:46:31;;;;;;;5.00;1.70;;;13.90;97.10;;;;;;5055016;28;20445;-60
2023/10/30 03:48:57;;;;;;;6.80;2.13;;;13.90;97.20;;;;;;5054612;28;21029;-60
2023/10/30 03:51:26;;;;;;;7.77;2.80;;;13.80;97.10;;;;;;5054909;28;20461;-60
2023/10/30 03:53:52;;;;;;;4.83;1.70;;;13.80;97.10;;;;;;5054950;28;20450;-60
2023/10/30 03:56:19;;;;;;;4.10;1.23;;;13.80;97.30;;;;;;5054737;28;20441;-60
2023/10/30 03:58:46;;;;;;;6.47;1.43;;;13.80;97.20;;;;;;5054776;28;20442;-60
2023/10/30 04:01:12;;;;;;;8.20;2.10;;;13.70;97.30;;;;;;5054393;28;20457;-60
2023/10/30 04:03:39;;;;;;;9.63;2.07;;;13.70;97.50;;;;;;5054670;28;20457;-60
2023/10/30 04:06:06;;;;;;;11.43;1.90;;;13.70;97.50;;;;;;5054759;28;20572;-60
2023/10/30 04:08:34;;;;;;;8.33;1.80;;;13.70;97.60;;;;;;5054177;28;20819;-60
2023/10/30 04:11:08;;;;;;;6.30;1.80;;;13.70;97.70;;;;;;5054559;28;20465;-60
2023/10/30 04:13:34;;;;;;;6.20;1.87;;;13.70;97.60;;;;;;5054836;28;20421;-60
2023/10/30 04:16:01;;;;;;;2.83;1.30;;;13.70;97.60;;;;;;5054446;28;20442;-60
2023/10/30 04:18:28;;;;;;;9.20;2.10;;;13.70;97.60;;;;;;5054484;28;20445;-60
2023/10/30 04:20:55;;;;;;;8.80;2.57;;;13.70;97.70;;;;;;5054648;28;20462;-60
2023/10/30 04:23:22;;;;;;;7.80;1.47;;;13.80;97.80;;;;;;5054527;28;20450;-60
2023/10/30 04:25:50;;;;;;;7.27;1.40;;;13.70;97.80;;;;;;5055334;28;20468;-60
2023/10/30 04:28:17;;;;;;;7.03;1.23;;;13.80;97.90;;;;;;5054339;28;20453;-60
2023/10/30 04:30:44;;;;;;;7.90;1.60;;;13.70;97.80;;;;;;5054366;28;20485;-60
2023/10/30 04:33:10;;;;;;;9.43;2.17;;;13.70;97.70;;;;;;5054388;28;20453;-60
2023/10/30 04:35:37;;;;;;;6.87;2.10;;;13.80;97.70;;;;;;5054123;28;20437;-60
2023/10/30 04:38:04;;;;;;;8.30;2.10;;;13.80;97.60;;;;;;5054225;28;20437;-60
2023/10/30 04:40:30;;;;;;;6.57;1.60;;;13.80;97.60;;;;;;5053762;28;20820;-60
2023/10/30 04:42:58;;;;;;;4.40;1.50;;;13.70;97.70;;;;;;5054186;28;20446;-60
2023/10/30 04:45:25;;;;;;;3.50;1.70;;;13.70;97.80;;;;;;5053955;28;20441;-60
2023/10/30 04:47:52;;;;;;;8.47;2.50;;;13.70;97.80;;;;;;5053424;28;20450;-60
2023/10/30 04:50:19;;;;;;;5.70;1.40;;;13.70;97.90;;;;;;5053876;28;20484;-60
2023/10/30 04:52:45;;;;;;;4.60;1.53;;;13.70;98.00;;;;;;5053834;28;20469;-60
2023/10/30 04:55:12;;;;;;;9.13;2.00;;;13.70;97.80;;;;;;5053403;28;20980;-60
2023/10/30 04:57:39;;;;;;;3.77;1.83;;;13.70;97.90;;;;;;5053911;28;20445;-60
2023/10/30 05:00:09;;;;;;;6.33;1.50;;;13.70;97.90;;;;;;5053592;28;20955;-60
2023/10/30 05:02:35;;;;;;;6.73;1.93;;;13.70;97.90;;;;;;5053477;28;20477;-60
2023/10/30 05:05:02;;;;;;;6.30;1.60;;;13.70;97.90;;;;;;5053300;28;20458;-60
2023/10/30 05:07:29;;;;;;;5.63;2.10;;;13.70;98.00;;;;;;5053620;28;20448;-60
2023/10/30 05:09:56;;;;;;;8.53;2.40;;;13.70;97.90;;;;;;5053494;28;20484;-60
2023/10/30 05:12:22;;;;;;;7.53;3.33;;;13.70;97.90;;;;;;5053527;28;20469;-61
2023/10/30 05:14:49;;;;;;;6.60;2.60;;;13.70;97.90;;;;;;5053720;28;20450;-60
2023/10/30 05:17:18;;;;;;;6.53;2.10;;;13.70;97.80;;;;;;5053268;28;20446;-60
2023/10/30 05:19:44;;;;;;;6.53;2.00;;;13.70;97.90;;;;;;5053476;28;20446;-60
2023/10/30 05:22:12;;;;;;;4.87;1.80;;;13.70;97.90;;;;;;5053314;28;20469;-60
2023/10/30 05:24:38;;;;;;;3.33;2.13;;;13.70;97.90;;;;;;5053323;28;20446;-60
2023/10/30 05:27:05;;;;;;;8.70;2.27;;;13.70;97.90;;;;;;5053361;28;20441;-60
2023/10/30 05:29:32;;;;;;;12.40;2.20;;;13.70;98.00;;;;;;5053014;28;20994;-60
2023/10/30 05:32:02;;;;;;;5.03;2.23;;;13.70;98.00;;;;;;5053219;28;20462;-60
2023/10/30 05:34:31;;;;;;;9.77;2.37;;;13.60;98.10;;;;;;5053386;28;20896;-60
2023/10/30 05:36:58;;;;;;;6.50;1.57;;;13.60;98.30;;;;;;5052864;28;20437;-60
2023/10/30 05:39:25;;;;;;;4.43;1.87;;;13.50;98.30;;;;;;5053169;28;20807;-60
2023/10/30 05:41:51;;;;;;;7.70;1.70;;;13.50;98.40;;;;;;5053212;28;20461;-60
2023/10/30 05:44:19;;;;;;;5.03;1.73;;;13.50;98.50;;;;;;5053305;28;20457;-60
2023/10/30 05:46:45;;;;;;;4.43;1.73;;;13.40;98.70;;;;;;5053139;28;20441;-60
2023/10/30 05:49:12;;;;;;;9.03;1.90;;;13.40;98.70;;;;;;5053033;28;20452;-60
2023/10/30 05:51:40;;;;;;;6.40;2.63;;;13.40;98.80;;;;;;5053184;28;20831;-60
2023/10/30 05:54:07;;;;;;;10.20;1.80;;;13.40;99.00;;;;;;5052755;28;20438;-60
2023/10/30 05:56:34;;;;;;;9.57;2.30;;;13.30;99.30;;;;;;5052577;28;20943;-60
2023/10/30 05:59:00;;;;;;;6.70;1.63;;;13.20;99.40;;;;;;5052996;28;20456;-60
2023/10/30 06:01:27;;;;;;;7.00;2.00;;;13.20;99.50;;;;;;5052956;28;20465;-60
2023/10/30 06:03:54;;;;;;;17.60;2.73;;;13.10;99.60;;;;;;5056345;28;20468;-59
2023/10/30 06:06:21;;;;;;;4.07;1.87;;;13.00;99.80;;;;;;5056901;28;20446;-60
2023/10/30 06:08:49;;;;;;;7.60;1.87;;;13.00;99.90;;;;;;5056792;28;20492;-60
2023/10/30 06:11:16;;;;;;;8.80;2.43;;;13.00;99.90;;;;;;5056455;28;20854;-60
2023/10/30 06:13:43;;;;;;;8.70;2.13;;;13.10;99.90;;;;;;5056528;28;21047;-60
2023/10/30 06:16:15;;;;;;;5.77;2.87;;;13.00;99.90;;;;;;5056352;28;20437;-59
2023/10/30 06:18:42;;;;;;;8.73;3.43;;;13.00;99.90;;;;;;5056536;28;20430;-60
2023/10/30 06:21:09;;;;;;;14.53;5.03;;;13.00;99.90;;;;;;5056643;28;20460;-60
2023/10/30 06:23:36;;;;;;;11.83;3.20;;;13.00;99.90;;;;;;5056597;28;20437;-60
2023/10/30 06:26:09;;;;;;;8.10;3.07;;;13.00;99.90;;;;;;5056358;28;20965;-60
2023/10/30 06:28:37;;;;;;;6.30;2.00;;;13.00;99.90;;;;;;5056724;28;20430;-60
2023/10/30 06:31:04;;;;;;;6.50;2.17;;;12.90;99.90;;;;;;5056190;28;20524;-60
2023/10/30 06:33:32;;;;;;;5.07;1.97;;;12.90;99.90;;;;;;5056239;28;20442;-60
2023/10/30 06:36:00;;;;;;;8.47;3.13;;;12.90;99.90;;;;;;5056017;28;20940;-60
2023/10/30 06:38:27;;;;;;;8.77;1.97;;;12.80;99.90;;;;;;5056067;28;20449;-59
2023/10/30 06:40:54;;;;;;;6.03;2.30;;;12.90;99.90;;;;;;5056195;28;20469;-60
2023/10/30 06:43:22;;;;;;;7.27;2.20;;;12.90;99.90;;;;;;5056352;28;20456;-60
2023/10/30 06:45:49;;;;;;;21.77;3.03;;;12.80;99.90;;;;;;5056273;28;20787;-59
2023/10/30 06:48:16;;;;;;;6.70;1.80;;;12.80;99.90;;;;;;5055833;28;20453;-59
2023/10/30 06:50:42;;;;;;;6.10;2.57;;;12.70;99.90;;;;;;5055997;28;20492;-59
2023/10/30 06:53:09;;;;;;;5.57;2.27;;;12.70;99.90;;;;;;5056034;28;20437;-60
2023/10/30 06:55:39;;;;;;;7.30;2.23;;;12.70;99.90;;;;;;5055869;28;20452;-59
2023/10/30 06:58:06;;;;;;;6.43;1.90;;;12.60;99.90;;;;;;5055944;28;20551;-59
2023/10/30 07:00:34;;;;;;;6.00;2.10;;;12.70;99.90;;;;;;5055535;28;20450;-60
2023/10/30 07:03:01;;;;;;;7.53;2.00;;;12.60;99.90;;;;;;5055737;28;20503;-60
2023/10/30 07:05:27;;;;;;;7.97;2.00;;;12.60;99.90;;;;;;5055722;28;20434;-60
2023/10/30 07:07:54;;;;;;;12.13;2.30;;;12.70;99.90;;;;;;5056750;28;20899;-60
2023/10/30 07:10:21;;;;;;;10.20;2.40;;;12.70;99.90;;;;;;5062977;28;20503;-60
2023/10/30 07:12:48;;;;;;;10.83;2.20;;;12.70;99.90;;;;;;5058377;28;20890;-60
2023/10/30 07:15:15;;;;;;;12.30;2.37;;;12.80;99.90;;;;;;5054447;28;20812;-60
2023/10/30 07:17:43;;;;;;;5.53;2.00;;;12.80;99.90;;;;;;5055341;28;20445;-60
2023/10/30 07:20:10;;;;;;;11.50;2.03;;;12.90;99.90;;;;;;5055592;28;20457;-59
2023/10/30 07:22:37;;;;;;;7.50;2.67;;;13.00;99.90;;;;;;5062851;28;20468;-60
2023/10/30 07:25:04;;;;;;;6.43;1.90;;;13.00;99.90;;;;;;5074081;28;20449;-60
2023/10/30 07:27:31;;;;;;;9.47;1.90;;;13.00;99.90;;;;;;5073917;28;20442;-60
2023/10/30 07:29:59;;;;;;;8.00;1.70;;;13.00;99.90;;;;;;5062103;28;20901;-60
2023/10/30 07:32:25;;;;;;;8.30;2.37;;;13.10;99.90;;;;;;5055803;28;20610;-60
2023/10/30 07:34:54;;;;;;;11.50;1.90;;;13.10;99.90;;;;;;5055506;28;20521;-60
2023/10/30 07:37:20;;;;;;;9.27;2.90;;;13.00;99.90;;;;;;5054935;28;20442;-59
2023/10/30 07:39:47;;;;;;;10.23;2.00;;;13.10;99.90;;;;;;5055254;28;20453;-59
2023/10/30 07:42:14;;;;;;;11.00;2.03;;;13.10;99.90;;;;;;5055158;28;20461;-59
2023/10/30 07:44:41;;;;;;;6.80;2.00;;;13.20;99.90;;;;;;5054922;28;21017;-60
2023/10/30 07:47:07;;;;;;;6.70;2.17;;;13.20;99.90;;;;;;5055105;28;20441;-60
2023/10/30 07:49:34;;;;;;;7.63;2.23;;;13.20;99.90;;;;;;5065346;28;20964;-60
2023/10/30 07:52:02;;;;;;;8.37;2.03;;;13.30;99.90;;;;;;5074758;28;20491;-60
2023/10/30 07:54:29;;;;;;;9.30;2.30;;;13.40;99.90;;;;;;5074971;28;20437;-59
2023/10/30 07:56:56;;;;;;;6.30;1.80;;;13.50;99.90;;;;;;5074697;28;20444;-60
2023/10/30 07:59:22;;;;;;;5.63;2.17;;;13.60;99.90;;;;;;5074854;28;20452;-60
2023/10/30 08:01:50;;;;;;;9.10;1.93;;;13.70;99.90;;;;;;5074682;28;20459;-60
2023/10/30 08:04:17;;;;;;;14.40;2.73;;;13.80;99.90;;;;;;5074395;28;20460;-59
2023/10/30 08:06:43;;;;;;;5.33;1.90;;;13.90;99.90;;;;;;5074667;28;20444;-60
2023/10/30 08:09:12;;;;;;;10.87;2.70;;;14.00;99.90;;;;;;5074586;28;20452;-60
2023/10/30 08:11:38;;;;;;;5.90;2.10;;;14.10;99.90;;;;;;5074474;28;20567;-59
2023/10/30 08:14:05;;;;;;;12.47;5.33;;;14.30;99.90;;;;;;5074064;28;20437;-59
2023/10/30 08:16:34;;;;;;;4.57;1.30;;;14.30;99.90;;;;;;5074001;28;20934;-60
2023/10/30 08:19:01;;;;;;;6.00;1.80;;;14.40;99.90;;;;;;5074418;28;20544;-60
2023/10/30 08:21:28;;;;;;;8.77;2.00;;;14.50;99.70;;;;;;5074379;28;20464;-60
2023/10/30 08:23:55;;;;;;;4.63;1.83;;;14.60;99.40;;;;;;5074350;28;20448;-60
2023/10/30 08:26:23;;;;;;;4.40;1.70;;;14.60;99.40;;;;;;5074032;28;20467;-59
2023/10/30 08:28:50;;;;;;;6.87;2.10;;;14.70;99.30;;;;;;5074260;28;20475;-60
2023/10/30 08:31:17;;;;;;;11.37;2.30;;;14.80;99.10;;;;;;5074095;28;20484;-60
2023/10/30 08:33:44;;;;;;;6.13;1.63;;;14.90;98.90;;;;;;5074171;28;20447;-60
2023/10/30 08:36:11;;;;;;;12.93;2.30;;;15.00;98.70;;;;;;5073592;28;20953;-60
2023/10/30 08:38:40;;;;;;;6.83;2.10;;;15.10;98.50;;;;;;5073997;28;20448;-60
2023/10/30 08:41:15;;;;;;;8.43;1.80;;;15.10;98.20;;;;;;5073650;28;20468;-60
2023/10/30 08:43:43;;;;;;;4.70;1.57;;;15.20;98.00;;;;;;5074053;28;20420;-60
2023/10/30 08:46:10;;;;;;;7.03;1.67;;;15.30;97.90;;;;;;5073832;28;20451;-60
2023/10/30 08:48:36;;;;;;;6.53;1.77;;;15.30;97.70;;;;;;5073913;28;20440;-60
2023/10/30 08:51:04;;;;;;;5.30;1.47;;;15.30;97.60;;;;;;5073454;28;20483;-60
2023/10/30 08:53:31;;;;;;;5.37;2.30;;;15.20;97.60;;;;;;5073710;28;20448;-60
2023/10/30 08:55:58;;;;;;;7.20;1.77;;;15.30;97.70;;;;;;5073869;28;20445;-60
2023/10/30 08:58:24;;;;;;;7.27;1.77;;;15.40;97.70;;;;;;5073502;28;20449;-60
2023/10/30 09:00:53;;;;;;;9.47;2.50;;;15.50;97.50;;;;;;5073596;28;20460;-60
2023/10/30 09:03:20;;;;;;;7.03;1.67;;;15.60;97.00;;;;;;5073379;28;20468;-60
2023/10/30 09:05:47;;;;;;;4.90;1.40;;;15.70;96.80;;;;;;5073670;28;20416;-60
2023/10/30 09:08:14;;;;;;;6.00;1.47;;;15.80;96.50;;;;;;5073608;28;20445;-60
2023/10/30 09:10:40;;;;;;;3.50;1.20;;;15.90;96.30;;;;;;5073426;28;20480;-60
2023/10/30 09:13:07;;;;;;;4.20;1.00;;;16.00;96.10;;;;;;5073265;28;20515;-60
2023/10/30 09:15:34;;;;;;;6.67;1.17;;;16.00;96.00;;;;;;5073508;28;20455;-60
2023/10/30 09:18:02;;;;;;;3.63;1.50;;;16.00;95.90;;;;;;5073274;28;20437;-60
2023/10/30 09:20:29;;;;;;;3.70;1.20;;;16.10;95.90;;;;;;5073448;28;20441;-60
2023/10/30 09:22:55;;;;;;;7.40;1.87;;;16.10;95.80;;;;;;5073370;28;20448;-60
2023/10/30 09:25:22;;;;;;;5.40;1.10;;;16.20;95.70;;;;;;5073388;28;20450;-60
2023/10/30 09:27:50;;;;;;;3.80;1.13;;;16.20;95.60;;;;;;5073393;28;20440;-60
2023/10/30 09:30:17;;;;;;;4.47;1.10;;;16.20;95.10;;;;;;5073289;28;20453;-60
2023/10/30 09:32:43;;;;;;;1.83;1.10;;;16.20;94.90;;;;;;5073308;28;20859;-60
2023/10/30 09:35:11;;;;;;;4.33;1.23;;;16.20;94.50;;;;;;5073191;28;20445;-60
2023/10/30 09:37:39;;;;;;;3.50;1.10;;;16.20;94.70;;;;;;5072365;28;20440;-60
2023/10/30 09:40:08;;;;;;;6.53;1.30;;;16.20;94.60;;;;;;5073284;28;20449;-60
2023/10/30 09:42:36;;;;;;;2.10;1.10;;;16.30;94.60;;;;;;5073216;28;20457;-60
2023/10/30 09:45:04;;;;;;;9.80;1.47;;;16.40;94.20;;;;;;5073223;28;20447;-60
2023/10/30 09:47:30;;;;;;;3.27;1.00;;;16.50;94.00;;;;;;5073176;28;20445;-60
2023/10/30 09:49:57;;;;;;;6.37;1.63;;;16.70;94.00;;;;;;5073699;28;20445;-60
2023/10/30 09:52:29;;;;;;;3.03;0.90;;;16.80;94.10;;;;;;5073064;28;20484;-60
2023/10/30 09:54:57;;;;;;;2.93;1.07;;;17.00;93.60;;;;;;5073093;28;20444;-60
2023/10/30 09:57:24;;;;;;;4.07;1.00;;;17.10;93.10;;;;;;5073002;28;20447;-60
2023/10/30 09:59:54;;;;;;;2.30;1.33;;;17.20;92.60;;;;;;5073121;28;20444;-60
2023/10/30 10:02:21;;;;;;;2.73;1.20;;;17.30;92.20;;;;;;5072712;28;20514;-60
2023/10/30 10:04:48;;;;;;;5.70;1.33;;;17.40;91.80;;;;;;5072656;28;20460;-60
2023/10/30 10:07:15;;;;;;;2.30;0.90;;;17.30;90.90;;;;;;5072739;28;20957;-60
2023/10/30 10:12:36;;;;;;;3.30;1.10;;;17.40;91.10;;;;;;5091061;28;21048;-59
2023/10/30 10:15:06;;;;;;;1.73;0.53;;;17.40;90.40;;;;;;5090619;28;20820;-59
2023/10/30 10:17:40;;;;;;;1.60;0.67;;;17.50;90.10;;;;;;5090616;28;20496;-59
2023/10/30 10:20:10;;;;;;;2.10;0.70;;;17.40;90.00;;;;;;5090680;28;20432;-59
2023/10/30 10:22:38;;;;;;;1.90;0.73;;;17.50;90.00;;;;;;5090943;28;20546;-59
2023/10/30 10:25:07;;;;;;;1.13;0.57;;;17.40;88.70;;;;;;5090726;28;20451;-59
2023/10/30 10:27:35;;;;;;;1.43;0.40;;;17.40;88.90;;;;;;5090633;28;20475;-59
2023/10/30 10:30:03;;;;;;;1.50;0.60;;;17.30;88.70;;;;;;5090625;28;20432;-59
2023/10/30 10:32:30;;;;;;;1.23;0.70;;;17.40;89.00;;;;;;5090394;28;20514;-59
2023/10/30 10:34:58;;;;;;;0.93;0.70;;;17.40;89.10;;;;;;5090589;28;20525;-59
2023/10/30 10:37:25;;;;;;;0.87;0.60;;;17.40;88.90;;;;;;5090268;28;20530;-59
2023/10/30 10:39:53;;;;;;;0.50;0.50;;;17.50;88.60;;;;;;5090237;28;20942;-59
2023/10/30 10:42:21;;;;;;;2.03;0.63;;;17.40;88.20;;;;;;5090155;28;21023;-59
2023/10/30 10:44:51;;;;;;;3.07;0.77;;;17.40;88.60;;;;;;5090544;28;20440;-59
2023/10/30 10:47:18;;;;;;;1.10;0.77;;;17.40;89.00;;;;;;5091054;28;20447;-59
2023/10/30 10:49:45;;;;;;;1.93;0.70;;;17.40;89.20;;;;;;5090354;28;20451;-59
2023/10/30 10:52:14;;;;;;;1.33;0.50;;;17.60;89.50;;;;;;5090333;28;20495;-59
2023/10/30 10:54:47;;;;;;;1.10;0.67;;;17.80;89.10;;;;;;5090186;28;20452;-59
2023/10/30 10:57:17;;;;;;;2.10;0.53;;;17.90;87.20;;;;;;5090258;28;20459;-59
2023/10/30 10:59:45;;;;;;;1.43;0.50;;;18.10;87.00;;;;;;5090207;28;20517;-59
2023/10/30 11:02:20;;;;;;;2.00;0.60;;;18.30;86.50;;;;;;5091124;28;20456;-59
2023/10/30 11:04:48;;;;;;;6.40;0.87;;;18.30;85.30;;;;;;5091137;28;20427;-59
2023/10/30 11:07:19;;;;;;;2.40;0.70;;;18.40;85.20;;;;;;5090684;28;20523;-59
2023/10/30 11:09:50;;;;;;;1.33;0.70;;;18.20;85.00;;;;;;5089827;28;20771;-59
2023/10/30 11:12:38;;;;;;;2.43;0.80;;;18.10;85.50;;;;;;5089593;28;20484;-59
2023/10/30 11:15:12;;;;;;;4.73;0.60;;;17.80;86.20;;;;;;5089693;28;20429;-59
2023/10/30 11:17:40;;;;;;;1.80;0.60;;;17.40;86.60;;;;;;5089646;28;20516;-59
2023/10/30 11:20:08;;;;;;;1.23;0.50;;;17.10;88.80;;;;;;5089686;28;20479;-58
2023/10/30 11:22:39;;;;;;;0.87;0.83;;;16.90;90.40;;;;;;5083410;28;20974;-59
2023/10/30 11:25:06;;;;;;;1.13;0.40;;;16.90;90.50;;;;;;5076018;28;20451;-59
2023/10/30 11:27:36;;;;;;;1.33;0.50;;;16.80;90.90;;;;;;5076039;28;20471;-59
2023/10/30 11:30:10;;;;;;;1.37;0.43;;;16.80;91.00;;;;;;5075556;28;20996;-59
2023/10/30 11:32:57;;;;;;;1.33;0.60;;;16.70;91.30;;;;;;5075554;28;20931;-58
2023/10/30 11:35:24;;;;;;;1.37;0.60;;;16.60;91.60;;;;;;5075970;28;20468;-59
2023/10/30 11:37:50;;;;;;;4.30;0.90;;;16.60;91.80;;;;;;5075409;28;20934;-59
2023/10/30 11:40:18;;;;;;;1.63;0.90;;;16.60;92.00;;;;;;5075849;28;20797;-58
2023/10/30 11:42:45;;;;;;;1.20;0.63;;;16.60;92.10;;;;;;5075788;28;20460;-59
2023/10/30 11:45:21;;;;;;;2.67;0.50;;;16.70;92.20;;;;;;5075759;28;20440;-59
2023/10/30 11:47:49;;;;;;;6.43;0.80;;;16.80;92.10;;;;;;5075809;28;20431;-59
2023/10/30 11:50:19;;;;;;;2.13;0.60;;;16.80;92.20;;;;;;5075768;28;20531;-58
2023/10/30 11:52:47;;;;;;;1.50;0.80;;;16.80;92.10;;;;;;5075810;28;20481;-59
2023/10/30 11:55:14;;;;;;;4.63;0.57;;;16.80;92.10;;;;;;5075341;28;20874;-59
2023/10/30 11:57:40;;;;;;;1.00;0.80;;;16.90;92.20;;;;;;5075121;28;20816;-59
2023/10/30 12:00:08;;;;;;;1.30;0.73;;;16.90;92.10;;;;;;5075449;28;20448;-59
2023/10/30 12:02:40;;;;;;;1.37;0.50;;;17.00;92.20;;;;;;5075309;28;20457;-59
2023/10/30 12:05:08;;;;;;;1.83;0.53;;;17.00;92.10;;;;;;5075201;28;20927;-59
2023/10/30 12:07:37;;;;;;;1.53;0.73;;;17.00;92.00;;;;;;5075432;28;20468;-59
2023/10/30 12:10:04;;;;;;;0.60;0.40;;;17.10;92.00;;;;;;5075336;28;20449;-59
2023/10/30 12:12:31;;;;;;;1.10;0.57;;;17.20;91.90;;;;;;5074973;28;20484;-59
2023/10/30 12:14:59;;;;;;;1.57;1.00;;;17.40;91.90;;;;;;5075209;28;20476;-59
2023/10/30 12:17:26;;;;;;;1.17;0.50;;;17.60;92.00;;;;;;5075240;28;20476;-59
2023/10/30 12:19:53;;;;;;;2.20;0.80;;;17.80;92.10;;;;;;5074896;28;20468;-59
2023/10/30 12:22:20;;;;;;;1.63;0.60;;;18.00;92.10;;;;;;5075100;28;20487;-59
2023/10/30 12:24:49;;;;;;;1.60;0.77;;;18.10;91.60;;;;;;5075181;28;20449;-59
2023/10/30 12:27:20;;;;;;;1.37;0.80;;;18.30;91.30;;;;;;5075055;28;20495;-59
2023/10/30 12:29:47;;;;;;;0.50;0.50;;;18.40;91.00;;;;;;5074984;28;20484;-60
2023/10/30 12:32:17;;;;;;;3.40;0.60;;;18.50;90.80;;;;;;5074847;28;20519;-60
2023/10/30 12:34:44;;;;;;;1.73;0.73;;;18.60;90.70;;;;;;5073967;28;20465;-60
2023/10/30 12:37:23;;;;;;;3.80;1.27;;;18.60;90.70;;;;;;5074653;28;20441;-59
2023/10/30 12:40:04;;;;;;;2.50;1.20;;;18.60;90.60;;;;;;5074745;28;20449;-59
2023/10/30 12:42:34;;;;;;;1.23;1.10;;;18.60;90.60;;;;;;5074447;28;20958;-59
2023/10/30 12:45:05;;;;;;;2.90;1.30;;;18.60;90.60;;;;;;5074448;28;20853;-59
2023/10/30 12:47:31;;;;;;;1.73;0.83;;;18.50;90.70;;;;;;5074538;28;20425;-59
2023/10/30 12:49:58;;;;;;;1.67;0.83;;;18.50;90.70;;;;;;5074174;28;20939;-59